Time;durP1;ratioP1;P1;durP2;ratioP2;P2;SDS_P1;SDS_P2;PMS_P1;PMS_P2;Temp;Humidity;BMP_temperature;BMP_pressure;BME280_temperature;BME280_humidity;BME280_pressure;Samples;Min_cycle;Max_cycle;Signal;HPM_P1;HPM_P2
2022/04/14 00:01:28;;;;;;;34.90;20.08;;;;;;;9.56;45.00;101041.75;5027334;28;20530;-59
2022/04/14 00:03:54;;;;;;;31.00;18.65;;;;;;;9.58;45.23;101040.00;5025051;28;20481;-58
2022/04/14 00:06:19;;;;;;;33.28;19.75;;;;;;;9.58;45.32;101039.13;5024912;28;20113;-58
2022/04/14 00:08:44;;;;;;;33.95;20.20;;;;;;;9.58;45.41;101041.75;5018121;28;20041;-58
2022/04/14 00:11:10;;;;;;;38.30;21.58;;;;;;;9.56;45.35;101039.13;5019385;28;20030;-58
2022/04/14 00:13:35;;;;;;;33.88;20.05;;;;;;;9.53;45.56;101039.13;5014783;28;20044;-58
2022/04/14 00:16:01;;;;;;;37.10;19.95;;;;;;;9.52;45.65;101039.16;5031495;28;20156;-58
2022/04/14 00:18:26;;;;;;;35.65;20.80;;;;;;;9.48;45.76;101040.06;5028446;28;20072;-58
2022/04/14 00:20:51;;;;;;;35.70;21.20;;;;;;;9.42;45.85;101037.50;5030227;28;20087;-58
2022/04/14 00:23:17;;;;;;;37.65;22.08;;;;;;;9.43;45.76;101037.47;5023765;28;20088;-57
2022/04/14 00:25:42;;;;;;;38.60;21.90;;;;;;;9.43;46.01;101026.13;5015994;28;20401;-58
2022/04/14 00:28:08;;;;;;;36.13;21.63;;;;;;;9.42;45.91;101022.63;5022871;28;20056;-57
2022/04/14 00:30:33;;;;;;;35.92;20.70;;;;;;;9.45;45.86;101022.59;5015208;28;20034;-58
2022/04/14 00:32:59;;;;;;;32.10;20.35;;;;;;;9.49;45.76;101023.44;5031077;28;20112;-58
2022/04/14 00:35:24;;;;;;;31.83;19.02;;;;;;;9.50;45.65;101018.19;5030375;28;20038;-59
2022/04/14 00:37:50;;;;;;;37.88;19.42;;;;;;;9.57;45.39;101017.25;5018675;28;20038;-59
2022/04/14 00:40:15;;;;;;;35.30;20.20;;;;;;;9.60;45.40;101025.09;5034315;28;20098;-59
2022/04/14 00:42:41;;;;;;;28.40;17.98;;;;;;;9.64;45.19;101015.47;5037300;28;20030;-58
2022/04/14 00:45:09;;;;;;;29.70;17.80;;;;;;;9.65;45.26;101013.69;5033744;28;20553;-59
2022/04/14 00:47:38;;;;;;;35.03;19.55;;;;;;;9.70;45.11;101017.19;5024673;28;20061;-59
2022/04/14 00:50:04;;;;;;;30.25;18.52;;;;;;;9.72;45.01;101020.66;5029812;28;20034;-58
2022/04/14 00:52:30;;;;;;;32.92;18.55;;;;;;;9.71;44.96;101011.03;5027568;28;20473;-58
2022/04/14 00:54:55;;;;;;;33.00;18.85;;;;;;;9.70;45.05;101014.56;5027442;28;20037;-58
2022/04/14 00:57:21;;;;;;;38.92;22.38;;;;;;;9.69;45.18;101008.41;5022020;28;20030;-58
2022/04/14 00:59:46;;;;;;;36.75;21.27;;;;;;;9.63;45.27;101003.22;5027986;28;20037;-58
2022/04/14 01:02:12;;;;;;;32.45;19.10;;;;;;;9.62;45.30;101002.38;5031549;28;20547;-59
2022/04/14 01:04:38;;;;;;;30.73;18.45;;;;;;;9.61;45.53;101000.63;5031423;28;20487;-58
2022/04/14 01:07:08;;;;;;;37.42;21.15;;;;;;;9.61;45.42;100991.84;5026969;28;20416;-58
2022/04/14 01:09:35;;;;;;;34.10;19.10;;;;;;;9.63;45.36;100993.59;5025409;28;20477;-58
2022/04/14 01:12:01;;;;;;;32.90;19.55;;;;;;;9.63;45.43;100998.84;5032696;28;20504;-58
2022/04/14 01:14:33;;;;;;;34.30;18.98;;;;;;;9.63;45.50;100998.84;5022787;28;20608;-58
2022/04/14 01:17:01;;;;;;;33.17;17.87;;;;;;;9.63;45.31;100990.97;5034557;28;20033;-58
2022/04/14 01:19:27;;;;;;;34.60;19.50;;;;;;;9.62;45.42;100988.38;5030379;28;20113;-58
2022/04/14 01:22:00;;;;;;;34.70;19.25;;;;;;;9.62;45.41;100989.25;5025554;28;20037;-57
2022/04/14 01:24:26;;;;;;;32.40;17.98;;;;;;;9.61;45.42;100979.63;5019836;28;20491;-57
2022/04/14 01:26:52;;;;;;;32.45;18.05;;;;;;;9.66;45.61;100986.59;5026205;28;20050;-58
2022/04/14 01:29:26;;;;;;;28.83;17.30;;;;;;;9.63;45.58;100979.63;5025429;28;20496;-57
2022/04/14 01:31:53;;;;;;;29.88;17.83;;;;;;;9.68;45.25;100977.81;5028944;28;20091;-57
2022/04/14 01:34:19;;;;;;;32.33;18.13;;;;;;;9.70;45.32;100972.56;5024914;28;20042;-58
2022/04/14 01:36:45;;;;;;;30.55;18.15;;;;;;;9.70;45.24;100965.56;5026324;28;20038;-58
2022/04/14 01:39:11;;;;;;;33.17;19.25;;;;;;;9.70;45.26;100968.19;5026604;28;20484;-58
2022/04/14 01:41:44;;;;;;;30.98;17.33;;;;;;;9.68;45.46;100962.06;5025823;28;20060;-58
2022/04/14 01:44:11;;;;;;;31.98;17.92;;;;;;;9.67;45.21;100962.09;5029532;28;20049;-58
2022/04/14 01:46:41;;;;;;;31.90;17.63;;;;;;;9.62;45.57;100962.13;5024641;28;20432;-59
2022/04/14 01:49:08;;;;;;;29.67;16.95;;;;;;;9.59;45.49;100959.53;5021341;28;20033;-59
2022/04/14 01:51:33;;;;;;;35.08;19.92;;;;;;;9.51;45.80;100951.72;5034768;28;20037;-56
2022/04/14 01:53:59;;;;;;;28.38;16.90;;;;;;;9.49;45.89;100955.22;5030960;28;20142;-58
2022/04/14 01:56:24;;;;;;;29.48;17.88;;;;;;;9.41;45.97;100950.03;5024287;28;20034;-59
2022/04/14 01:58:52;;;;;;;30.67;17.70;;;;;;;9.35;46.12;100950.09;5022554;28;20036;-58
2022/04/14 02:01:18;;;;;;;31.77;19.30;;;;;;;9.29;46.27;100943.13;5025094;28;20416;-58
2022/04/14 02:03:43;;;;;;;30.23;18.42;;;;;;;9.26;46.44;100939.69;5030328;28;20048;-59
2022/04/14 02:06:12;;;;;;;31.90;18.65;;;;;;;9.15;46.71;100933.66;5028507;28;20128;-59
2022/04/14 02:08:37;;;;;;;35.88;19.40;;;;;;;9.07;46.91;100929.31;5030192;28;20037;-58
2022/04/14 02:11:03;;;;;;;27.20;16.63;;;;;;;9.03;47.01;100925.00;5017620;28;20056;-58
2022/04/14 02:13:32;;;;;;;27.58;16.92;;;;;;;9.04;47.04;100936.34;5015316;28;20050;-58
2022/04/14 02:15:58;;;;;;;29.30;17.27;;;;;;;9.01;47.08;100929.34;5028275;28;20029;-59
2022/04/14 02:18:24;;;;;;;31.80;18.25;;;;;;;8.97;46.99;100932.88;5019427;28;20144;-58
2022/04/14 02:20:49;;;;;;;27.73;17.20;;;;;;;8.94;47.31;100929.44;5028045;28;20473;-58
2022/04/14 02:23:14;;;;;;;34.90;19.10;;;;;;;8.91;47.38;100938.16;5017902;28;20176;-59
2022/04/14 02:25:40;;;;;;;31.65;18.73;;;;;;;8.84;47.59;100931.22;5033914;28;20037;-58
2022/04/14 02:28:05;;;;;;;31.02;18.15;;;;;;;8.80;47.65;100930.38;5032250;28;20117;-58
2022/04/14 02:30:33;;;;;;;32.35;19.08;;;;;;;8.76;47.92;100927.78;5022484;28;20421;-59
2022/04/14 02:32:59;;;;;;;31.05;18.00;;;;;;;8.75;47.85;100926.91;5026981;28;20086;-58
2022/04/14 02:35:24;;;;;;;30.05;16.73;;;;;;;8.76;47.90;100927.78;5026550;28;20021;-59
2022/04/14 02:37:50;;;;;;;29.98;17.73;;;;;;;8.75;47.88;100926.03;5029345;28;20089;-58
2022/04/14 02:40:15;;;;;;;33.30;19.38;;;;;;;8.73;47.93;100919.91;5024025;28;20140;-59
2022/04/14 02:42:41;;;;;;;29.40;17.40;;;;;;;8.74;47.92;100919.94;5013918;28;20042;-59
2022/04/14 02:45:07;;;;;;;28.98;18.13;;;;;;;8.78;47.91;100921.66;5018237;28;20045;-59
2022/04/14 02:47:35;;;;;;;32.17;18.33;;;;;;;8.79;47.92;100912.03;5018838;28;20060;-58
2022/04/14 02:50:01;;;;;;;30.15;18.65;;;;;;;8.78;47.94;100910.31;5026163;28;20026;-58
2022/04/14 02:52:26;;;;;;;31.40;19.55;;;;;;;8.77;47.96;100904.16;5028993;28;20116;-59
2022/04/14 02:54:51;;;;;;;27.67;16.30;;;;;;;8.79;48.15;100901.56;5024895;28;20057;-59
2022/04/14 02:57:17;;;;;;;32.17;18.40;;;;;;;8.79;47.93;100901.56;5018969;28;20038;-58
2022/04/14 02:59:42;;;;;;;27.38;17.33;;;;;;;8.78;47.96;100894.59;5023190;28;20041;-58
2022/04/14 03:02:08;;;;;;;31.38;17.10;;;;;;;8.78;48.03;100892.84;5017997;28;20143;-59
2022/04/14 03:04:33;;;;;;;27.30;15.95;;;;;;;8.80;47.94;100892.81;5031585;28;20029;-58
2022/04/14 03:06:58;;;;;;;26.58;16.30;;;;;;;8.78;47.93;100895.44;5031451;28;20053;-58
2022/04/14 03:09:24;;;;;;;27.10;15.93;;;;;;;8.79;48.03;100891.06;5030172;28;20039;-58
2022/04/14 03:11:49;;;;;;;26.65;16.05;;;;;;;8.82;47.87;100893.69;5028445;28;20033;-59
2022/04/14 03:14:15;;;;;;;25.60;16.77;;;;;;;8.85;47.84;100896.25;5023712;28;20036;-58
2022/04/14 03:16:41;;;;;;;26.48;15.55;;;;;;;8.87;47.88;100894.50;5026688;28;20389;-59
2022/04/14 03:19:06;;;;;;;25.52;14.73;;;;;;;8.89;47.93;100892.75;5030076;28;20107;-58
2022/04/14 03:21:33;;;;;;;24.30;15.65;;;;;;;8.92;47.84;100897.97;5029534;28;20496;-58
2022/04/14 03:23:58;;;;;;;28.58;16.00;;;;;;;8.94;47.90;100895.34;5015230;28;20037;-58
2022/04/14 03:26:24;;;;;;;31.83;17.05;;;;;;;8.91;48.11;100903.22;5012805;28;20476;-57
2022/04/14 03:28:49;;;;;;;26.05;16.08;;;;;;;8.89;48.10;100903.22;5020285;28;20038;-59
2022/04/14 03:31:15;;;;;;;26.23;16.83;;;;;;;8.82;48.35;100896.31;5020187;28;20058;-58
2022/04/14 03:33:40;;;;;;;29.73;16.75;;;;;;;8.81;48.34;100905.03;5029400;28;20033;-59
2022/04/14 03:36:06;;;;;;;27.45;15.93;;;;;;;8.77;48.56;100903.31;5021255;28;20033;-59
2022/04/14 03:38:31;;;;;;;26.77;15.32;;;;;;;8.71;48.65;100905.97;5017048;28;20351;-59
2022/04/14 03:40:59;;;;;;;29.27;17.48;;;;;;;8.62;48.94;100904.28;5015951;28;20054;-59
2022/04/14 03:43:24;;;;;;;27.30;16.65;;;;;;;8.55;49.05;100902.56;5016855;28;20101;-59
2022/04/14 03:45:50;;;;;;;26.20;16.33;;;;;;;8.51;49.12;100901.72;5024594;28;20132;-58
2022/04/14 03:48:15;;;;;;;26.50;16.48;;;;;;;8.46;49.13;100893.00;5023342;28;20068;-58
2022/04/14 03:50:40;;;;;;;27.95;15.68;;;;;;;8.43;49.48;100893.03;5024356;28;20045;-58
2022/04/14 03:53:06;;;;;;;24.60;15.55;;;;;;;8.39;49.54;100880.81;5030333;28;20032;-58
2022/04/14 03:55:31;;;;;;;27.70;17.13;;;;;;;8.38;49.69;100889.56;5015767;28;20076;-58
2022/04/14 03:57:57;;;;;;;31.63;17.50;;;;;;;8.33;49.89;100880.78;5022582;28;20768;-58
2022/04/14 04:00:22;;;;;;;34.00;20.55;;;;;;;8.31;50.09;100887.81;5030889;28;20034;-58
2022/04/14 04:02:48;;;;;;;32.90;19.52;;;;;;;8.32;49.96;100885.16;5021207;28;20037;-58
2022/04/14 04:05:13;;;;;;;37.67;20.73;;;;;;;8.27;50.21;100886.06;5017271;28;20037;-58
2022/04/14 04:07:38;;;;;;;39.28;22.58;;;;;;;8.21;50.45;100889.56;5022448;28;20030;-58
2022/04/14 04:10:05;;;;;;;35.65;21.23;;;;;;;8.21;50.13;100893.94;5026364;28;20040;-58
2022/04/14 04:12:31;;;;;;;34.88;19.40;;;;;;;8.23;50.39;100884.34;5019453;28;20056;-58
2022/04/14 04:14:56;;;;;;;34.10;20.75;;;;;;;8.26;50.29;100890.44;5022678;28;20470;-59
2022/04/14 04:17:22;;;;;;;38.03;21.77;;;;;;;8.27;50.35;100886.94;5024809;28;20049;-60
2022/04/14 04:19:47;;;;;;;43.60;24.08;;;;;;;8.26;50.50;100889.53;5029390;28;20116;-59
2022/04/14 04:22:13;;;;;;;38.15;22.48;;;;;;;8.27;50.52;100888.69;5033451;28;20428;-59
2022/04/14 04:24:39;;;;;;;47.45;25.77;;;;;;;8.27;50.51;100886.06;5032022;28;20037;-59
2022/04/14 04:27:05;;;;;;;45.33;25.60;;;;;;;8.31;50.46;100887.81;5031411;28;20064;-59
2022/04/14 04:29:30;;;;;;;46.40;25.05;;;;;;;8.41;50.33;100886.03;5031350;28;20086;-59
2022/04/14 04:31:56;;;;;;;49.72;26.88;;;;;;;8.46;50.34;100885.16;5020024;28;20049;-59
2022/04/14 04:34:22;;;;;;;48.15;27.77;;;;;;;8.46;50.39;100881.63;5013759;28;20124;-60
2022/04/14 04:36:47;;;;;;;50.03;28.23;;;;;;;8.51;50.37;100887.75;5024159;28;20361;-59
2022/04/14 04:39:13;;;;;;;45.67;25.77;;;;;;;8.55;50.28;100881.63;5025911;28;20049;-59
2022/04/14 04:41:38;;;;;;;52.67;27.63;;;;;;;8.60;50.57;100879.81;5018469;28;20041;-59
2022/04/14 04:44:04;;;;;;;41.03;25.27;;;;;;;8.64;50.31;100877.19;5026789;28;20437;-57
2022/04/14 04:46:30;;;;;;;45.08;25.52;;;;;;;8.72;50.26;100873.66;5023259;28;20094;-58
2022/04/14 04:48:56;;;;;;;50.53;26.23;;;;;;;8.80;50.05;100867.47;5030308;28;20034;-58
2022/04/14 04:51:22;;;;;;;35.45;22.33;;;;;;;8.87;50.00;100870.94;5030792;28;20088;-58
2022/04/14 04:53:47;;;;;;;37.33;23.58;;;;;;;8.93;49.94;100870.00;5032217;28;20065;-58
2022/04/14 04:56:13;;;;;;;39.60;23.45;;;;;;;9.00;49.79;100874.34;5030741;28;20500;-58
2022/04/14 04:58:38;;;;;;;41.67;24.42;;;;;;;9.05;49.47;100868.16;5029875;28;20112;-58
2022/04/14 05:01:04;;;;;;;42.92;23.42;;;;;;;9.11;49.45;100868.13;5015660;28;20026;-58
2022/04/14 05:03:30;;;;;;;34.72;20.33;;;;;;;9.17;49.32;100866.31;5012842;28;20401;-58
2022/04/14 05:05:55;;;;;;;33.10;19.38;;;;;;;9.23;49.28;100866.28;5013287;28;20080;-58
2022/04/14 05:08:21;;;;;;;33.78;19.27;;;;;;;9.34;48.88;100870.56;5022945;28;20112;-58
2022/04/14 05:10:46;;;;;;;34.00;19.98;;;;;;;9.43;48.75;100863.50;5029653;28;20120;-58
2022/04/14 05:13:14;;;;;;;31.42;19.30;;;;;;;9.49;48.61;100858.19;5021477;28;20116;-58
2022/04/14 05:15:40;;;;;;;32.38;18.90;;;;;;;9.53;48.55;100855.50;5027371;28;20111;-58
2022/04/14 05:18:05;;;;;;;36.03;20.05;;;;;;;9.61;48.27;100861.56;5030083;28;20096;-58
2022/04/14 05:20:31;;;;;;;28.00;17.15;;;;;;;9.72;48.18;100860.56;5025215;28;20048;-58
2022/04/14 05:22:57;;;;;;;26.63;14.60;;;;;;;9.80;48.06;100864.00;5028947;28;20044;-58
2022/04/14 05:25:22;;;;;;;36.22;18.75;;;;;;;9.93;47.61;100865.56;5026535;28;20044;-59
2022/04/14 05:27:48;;;;;;;29.13;17.20;;;;;;;10.04;47.40;100852.34;5029183;28;20152;-58
2022/04/14 05:30:14;;;;;;;35.50;20.17;;;;;;;10.14;47.27;100855.75;5024683;28;20076;-58
2022/04/14 05:32:40;;;;;;;31.27;18.67;;;;;;;10.23;47.18;100847.75;5032762;28;20105;-59
2022/04/14 05:35:09;;;;;;;31.83;17.95;;;;;;;10.31;47.08;100851.16;5010591;28;20450;-58
2022/04/14 05:37:35;;;;;;;35.20;17.42;;;;;;;10.38;46.88;100842.31;5018060;28;20504;-58
2022/04/14 05:40:03;;;;;;;33.20;18.45;;;;;;;10.43;47.04;100837.88;5032597;28;20041;-58
2022/04/14 05:42:28;;;;;;;31.52;17.63;;;;;;;10.50;46.72;100836.91;5024799;28;20474;-59
2022/04/14 05:44:54;;;;;;;26.20;15.95;;;;;;;10.63;46.48;100842.84;5017053;28;20091;-58
2022/04/14 05:47:19;;;;;;;29.73;15.75;;;;;;;10.75;46.17;100833.91;5023737;28;20044;-58
2022/04/14 05:49:44;;;;;;;30.60;17.10;;;;;;;10.88;45.85;100831.94;5032641;28;20061;-58
2022/04/14 05:52:10;;;;;;;28.90;16.20;;;;;;;11.02;45.39;100833.47;5022741;28;20470;-58
2022/04/14 05:54:35;;;;;;;30.52;17.13;;;;;;;11.16;45.10;100822.72;5017025;28;20030;-59
2022/04/14 05:57:00;;;;;;;24.00;14.48;;;;;;;11.32;44.70;100828.59;5031321;28;20116;-59
2022/04/14 05:59:26;;;;;;;24.60;14.23;;;;;;;11.44;44.37;100820.47;5032831;28;20042;-58
2022/04/14 06:01:51;;;;;;;20.58;13.85;;;;;;;11.58;44.05;100831.63;5022830;28;20112;-57
2022/04/14 06:04:16;;;;;;;22.05;12.88;;;;;;;11.71;43.75;100820.84;5027772;28;20505;-58
2022/04/14 06:06:42;;;;;;;20.70;12.90;;;;;;;11.83;43.51;100820.66;5016524;28;20034;-57
2022/04/14 06:09:07;;;;;;;25.67;13.80;;;;;;;11.97;43.32;100823.00;5026079;28;20041;-59
2022/04/14 06:11:33;;;;;;;24.13;12.57;;;;;;;11.99;43.04;100806.28;5024265;28;20845;-58
2022/04/14 06:13:58;;;;;;;21.98;13.55;;;;;;;12.10;43.04;100824.50;5023803;28;20045;-59
2022/04/14 06:16:24;;;;;;;21.67;12.70;;;;;;;12.25;42.92;100823.31;5024517;28;20036;-58
2022/04/14 06:18:49;;;;;;;20.88;13.15;;;;;;;12.40;42.67;100817.69;5029430;28;20025;-58
2022/04/14 06:21:15;;;;;;;20.75;12.82;;;;;;;12.53;42.61;100815.66;5025092;28;20456;-58
2022/04/14 06:23:40;;;;;;;20.00;13.63;;;;;;;12.68;42.35;100819.69;5020881;28;20041;-58
2022/04/14 06:26:05;;;;;;;22.80;13.38;;;;;;;12.85;41.91;100821.94;5015933;28;20026;-58
2022/04/14 06:28:34;;;;;;;24.73;13.50;;;;;;;12.99;41.51;100822.47;5024580;28;20037;-58
2022/04/14 06:30:59;;;;;;;19.70;12.52;;;;;;;13.14;41.15;100814.19;5017571;28;20121;-58
2022/04/14 06:33:25;;;;;;;22.90;13.80;;;;;;;13.26;40.95;100810.41;5023912;28;20124;-58
2022/04/14 06:35:51;;;;;;;21.92;13.02;;;;;;;13.37;40.71;100805.72;5024799;28;20540;-58
2022/04/14 06:38:17;;;;;;;20.75;12.88;;;;;;;13.50;40.36;100808.88;5019945;28;20032;-59
2022/04/14 06:40:42;;;;;;;24.33;13.45;;;;;;;13.59;40.02;100800.69;5019022;28;20426;-60
2022/04/14 06:43:08;;;;;;;21.55;13.20;;;;;;;13.68;39.91;100805.72;5027623;28;20055;-59
2022/04/14 06:45:33;;;;;;;22.10;12.43;;;;;;;13.80;39.71;100805.41;5027363;28;21267;-59
2022/04/14 06:47:59;;;;;;;23.15;14.15;;;;;;;13.79;39.35;100810.72;5024788;28;20033;-59
2022/04/14 06:50:25;;;;;;;22.25;13.27;;;;;;;13.77;39.51;100807.25;5023507;28;20056;-58
2022/04/14 06:52:53;;;;;;;21.30;13.07;;;;;;;13.86;39.27;100811.41;5022030;28;20060;-58
2022/04/14 06:55:21;;;;;;;23.10;12.30;;;;;;;13.91;39.42;100802.44;5028367;28;20041;-58
2022/04/14 06:57:47;;;;;;;18.65;11.27;;;;;;;14.03;39.42;100799.44;5027599;28;20083;-58
2022/04/14 07:00:13;;;;;;;21.80;12.30;;;;;;;14.18;39.02;100797.28;5021136;28;20033;-58
2022/04/14 07:02:49;;;;;;;18.73;12.48;;;;;;;14.32;38.57;100794.19;5024017;28;20042;-58
2022/04/14 07:05:15;;;;;;;21.13;12.00;;;;;;;14.42;38.85;100785.94;5023498;28;20522;-58
2022/04/14 07:07:40;;;;;;;22.25;12.35;;;;;;;14.58;38.52;100786.38;5025227;28;20029;-58
2022/04/14 07:10:06;;;;;;;19.58;11.75;;;;;;;14.79;38.29;100777.72;5026835;28;20026;-58
2022/04/14 07:12:32;;;;;;;21.88;11.88;;;;;;;14.97;37.82;100773.63;5018285;28;20041;-58
2022/04/14 07:15:00;;;;;;;21.60;13.25;;;;;;;15.11;37.70;100780.22;5021172;28;20087;-59
2022/04/14 07:17:26;;;;;;;21.58;13.30;;;;;;;15.18;37.50;100771.16;5020732;28;20040;-58
2022/04/14 07:19:52;;;;;;;19.35;12.05;;;;;;;15.28;37.29;100772.59;5022046;28;20074;-59
2022/04/14 07:22:18;;;;;;;18.48;10.95;;;;;;;15.37;37.25;100772.25;5021852;28;20045;-58
2022/04/14 07:24:47;;;;;;;21.73;12.32;;;;;;;15.32;37.21;100779.50;5023855;28;20041;-58
2022/04/14 07:27:13;;;;;;;23.00;13.60;;;;;;;15.30;36.94;100786.63;5026216;28;20067;-57
2022/04/14 07:29:38;;;;;;;20.67;12.40;;;;;;;15.48;36.94;100793.94;5030894;28;20037;-59
2022/04/14 07:32:04;;;;;;;22.58;13.77;;;;;;;15.52;36.81;100789.41;5026083;28;20045;-59
2022/04/14 07:34:29;;;;;;;21.13;13.27;;;;;;;15.45;36.94;100795.81;5022759;28;20116;-59
2022/04/14 07:36:55;;;;;;;21.63;13.27;;;;;;;15.54;36.85;100787.53;5021870;28;20034;-59
2022/04/14 07:39:20;;;;;;;18.92;12.88;;;;;;;15.69;36.78;100787.03;5016851;28;20100;-59
2022/04/14 07:41:46;;;;;;;23.17;13.27;;;;;;;15.74;36.60;100786.84;5023184;28;20045;-59
2022/04/14 07:44:11;;;;;;;22.63;12.32;;;;;;;15.85;36.51;100799.72;5028590;28;20042;-58
2022/04/14 07:46:38;;;;;;;22.55;14.25;;;;;;;15.79;36.48;100784.88;5022304;28;20030;-59
2022/04/14 07:49:05;;;;;;;22.15;13.48;;;;;;;15.81;36.59;100788.38;5025041;28;20065;-58
2022/04/14 07:51:30;;;;;;;22.02;14.40;;;;;;;15.91;36.62;100789.72;5015625;28;20042;-59
2022/04/14 07:53:56;;;;;;;25.80;14.57;;;;;;;15.92;36.50;100793.28;5013269;28;20038;-59
2022/04/14 07:56:22;;;;;;;20.88;13.35;;;;;;;16.15;36.22;100787.09;5014180;28;20436;-58
2022/04/14 07:58:51;;;;;;;22.92;13.93;;;;;;;16.41;36.00;100784.31;5037532;28;20061;-60
2022/04/14 08:01:18;;;;;;;27.50;12.57;;;;;;;16.63;35.74;100786.09;5024518;28;20109;-59
2022/04/14 08:03:47;;;;;;;18.63;12.38;;;;;;;16.90;35.40;100787.66;5024511;28;20037;-59
2022/04/14 08:06:14;;;;;;;21.27;12.38;;;;;;;17.12;35.21;100790.28;5018206;28;20121;-59
2022/04/14 08:08:40;;;;;;;21.75;12.82;;;;;;;17.23;34.96;100784.50;5016720;28;20033;-59
2022/04/14 08:11:08;;;;;;;23.25;14.18;;;;;;;17.38;34.86;100778.53;5033051;28;20484;-59
2022/04/14 08:13:37;;;;;;;22.48;14.18;;;;;;;17.59;34.33;100775.84;5016325;28;20065;-58
2022/04/14 08:16:06;;;;;;;22.52;13.25;;;;;;;17.70;34.28;100777.09;5016767;28;20040;-59
2022/04/14 08:18:40;;;;;;;23.58;15.10;;;;;;;17.80;33.79;100777.59;5027248;28;20044;-59
2022/04/14 08:21:06;;;;;;;24.63;14.20;;;;;;;17.75;34.16;100779.59;5020491;28;20048;-59
2022/04/14 08:23:38;;;;;;;40.25;18.75;;;;;;;17.92;33.98;100773.53;5019251;28;20045;-59
2022/04/14 08:26:04;;;;;;;33.65;18.90;;;;;;;17.94;33.82;100772.50;5013493;28;20049;-59
2022/04/14 08:28:30;;;;;;;31.67;18.67;;;;;;;17.86;33.75;100779.97;5018116;28;20428;-58
2022/04/14 08:30:56;;;;;;;29.92;18.67;;;;;;;17.94;34.05;100767.19;5027611;28;20108;-57
2022/04/14 08:33:23;;;;;;;34.67;22.83;;;;;;;18.09;33.86;100773.59;5019298;28;20435;-58
2022/04/14 08:35:49;;;;;;;26.92;15.65;;;;;;;18.28;33.66;100773.59;5022215;28;20042;-58
2022/04/14 08:38:15;;;;;;;23.85;15.43;;;;;;;18.46;33.39;100772.72;5027715;28;20042;-58
2022/04/14 08:40:42;;;;;;;27.13;16.00;;;;;;;18.62;33.44;100779.97;5026258;28;20137;-59
2022/04/14 08:43:09;;;;;;;28.38;18.67;;;;;;;18.78;33.06;100772.97;5025126;28;20040;-58
2022/04/14 08:45:46;;;;;;;25.67;15.00;;;;;;;18.93;32.75;100772.22;5021752;28;20025;-58
2022/04/14 08:48:13;;;;;;;25.20;16.13;;;;;;;19.10;32.88;100771.34;5032119;28;20095;-57
2022/04/14 08:50:38;;;;;;;20.00;13.65;;;;;;;19.10;32.98;100774.03;5029223;28;20033;-59
2022/04/14 08:53:04;;;;;;;22.40;14.25;;;;;;;19.23;32.88;100782.28;5023353;28;20046;-59
2022/04/14 08:55:30;;;;;;;24.42;14.68;;;;;;;19.28;32.82;100774.91;5024680;28;20103;-59
2022/04/14 08:57:56;;;;;;;22.17;13.45;;;;;;;19.33;32.64;100772.00;5029248;28;20038;-59
2022/04/14 09:00:22;;;;;;;26.85;15.65;;;;;;;19.45;32.42;100772.22;5026270;28;20117;-59
2022/04/14 09:02:50;;;;;;;27.83;15.20;;;;;;;19.57;32.39;100764.50;5024612;28;20640;-59
2022/04/14 09:05:17;;;;;;;24.77;15.45;;;;;;;19.67;32.34;100765.78;5033402;28;20037;-59
2022/04/14 09:07:47;;;;;;;24.48;15.55;;;;;;;19.70;32.26;100760.28;5029246;28;20037;-59
2022/04/14 09:10:13;;;;;;;29.13;15.40;;;;;;;19.70;32.31;100760.28;5016183;28;20528;-59
2022/04/14 09:12:38;;;;;;;25.40;14.98;;;;;;;19.68;32.51;100757.72;5026478;28;20038;-59
2022/04/14 09:15:05;;;;;;;26.73;15.30;;;;;;;19.73;32.42;100757.44;5026111;28;20039;-59
2022/04/14 09:17:30;;;;;;;25.75;14.98;;;;;;;19.75;32.56;100760.91;5025048;28;20116;-59
2022/04/14 09:19:56;;;;;;;23.98;14.90;;;;;;;19.65;32.48;100752.53;5031196;28;20115;-59
2022/04/14 09:22:23;;;;;;;31.38;17.63;;;;;;;19.60;32.60;100756.38;5025333;28;20072;-59
2022/04/14 09:24:54;;;;;;;30.17;16.35;;;;;;;19.65;32.50;100752.53;5025992;28;20053;-58
2022/04/14 09:27:26;;;;;;;35.13;16.63;;;;;;;19.79;32.32;100759.81;5026627;28;20155;-57
2022/04/14 09:29:52;;;;;;;28.88;15.80;;;;;;;19.87;32.43;100757.59;5022742;28;20026;-57
2022/04/14 09:32:31;;;;;;;25.52;15.10;;;;;;;19.94;31.96;100747.41;5023522;28;20045;-58
2022/04/14 09:35:03;;;;;;;34.50;21.17;;;;;;;20.10;31.83;100747.44;5024674;28;20565;-58
2022/04/14 09:37:29;;;;;;;31.80;19.45;;;;;;;20.25;31.87;100745.72;5025504;28;20026;-58
2022/04/14 09:40:08;;;;;;;29.38;19.45;;;;;;;20.43;31.58;100750.91;5028323;28;20038;-58
2022/04/14 09:42:36;;;;;;;40.08;23.20;;;;;;;20.52;31.65;100743.34;5025057;28;20029;-58
2022/04/14 09:45:25;;;;;;;57.90;30.13;;;;;;;20.48;31.40;100737.28;5020503;28;20035;-59
2022/04/14 09:47:52;;;;;;;31.27;18.30;;;;;;;20.56;31.66;100736.88;5020535;28;20037;-58
2022/04/14 09:50:35;;;;;;;27.92;16.27;;;;;;;20.80;31.04;100731.94;5018540;28;20115;-58
2022/04/14 09:53:07;;;;;;;25.65;16.40;;;;;;;20.99;31.27;100731.72;5027418;28;20060;-58
2022/04/14 09:55:41;;;;;;;25.05;13.93;;;;;;;21.05;31.00;100731.34;5024513;28;20037;-58
2022/04/14 09:58:16;;;;;;;23.20;13.52;;;;;;;21.17;30.97;100730.59;5024165;28;20164;-59
2022/04/14 10:00:52;;;;;;;22.85;13.38;;;;;;;21.33;30.33;100725.22;5024625;28;20049;-58
2022/04/14 10:03:26;;;;;;;25.88;16.05;;;;;;;21.45;30.39;100727.13;5020573;28;20069;-58
2022/04/14 10:05:56;;;;;;;25.27;16.10;;;;;;;21.50;30.59;100722.34;5025630;28;20110;-58
2022/04/14 10:08:25;;;;;;;26.75;16.00;;;;;;;21.64;30.48;100725.03;5019581;28;20080;-58
2022/04/14 10:11:04;;;;;;;28.27;17.00;;;;;;;21.66;30.24;100708.91;5023416;28;20128;-58
2022/04/14 10:13:39;;;;;;;25.02;15.00;;;;;;;21.73;30.25;100718.25;5028618;28;20045;-58
2022/04/14 10:16:07;;;;;;;24.95;14.70;;;;;;;21.79;30.23;100722.38;5026836;28;20542;-58
2022/04/14 10:18:32;;;;;;;21.80;13.27;;;;;;;21.81;30.38;100710.59;5025668;28;20029;-57
2022/04/14 10:20:58;;;;;;;24.75;14.07;;;;;;;21.81;30.48;100715.09;5031062;28;20382;-58
2022/04/14 10:23:26;;;;;;;34.88;20.92;;;;;;;21.85;30.64;100706.78;5026391;28;20041;-58
2022/04/14 10:25:53;;;;;;;27.08;16.67;;;;;;;21.84;30.67;100715.78;5028268;28;20388;-57
2022/04/14 10:28:20;;;;;;;27.50;16.42;;;;;;;21.87;30.43;100720.94;5024635;28;20548;-58
2022/04/14 10:30:56;;;;;;;32.75;18.25;;;;;;;21.93;30.50;100724.16;5022617;28;20025;-58
2022/04/14 10:33:22;;;;;;;28.30;17.38;;;;;;;22.02;30.50;100728.94;5022089;28;20051;-57
2022/04/14 10:35:52;;;;;;;54.28;22.98;;;;;;;22.06;30.40;100719.75;5020626;28;20049;-57
2022/04/14 10:38:38;;;;;;;26.13;15.60;;;;;;;22.04;29.89;100711.81;5025360;28;20029;-58
2022/04/14 10:41:13;;;;;;;23.92;14.23;;;;;;;22.10;30.24;100723.94;5021677;28;20485;-58
2022/04/14 10:43:48;;;;;;;30.95;16.83;;;;;;;22.26;30.06;100723.84;5023156;28;20218;-58
2022/04/14 10:46:17;;;;;;;29.70;15.93;;;;;;;22.40;30.12;100722.97;5022935;28;20072;-57
2022/04/14 10:48:45;;;;;;;25.25;15.00;;;;;;;22.55;29.95;100721.97;5024233;28;20032;-58
2022/04/14 10:51:13;;;;;;;26.02;15.48;;;;;;;22.65;29.74;100722.19;5020813;28;20038;-58
2022/04/14 10:53:57;;;;;;;24.13;14.90;;;;;;;22.66;29.24;100715.88;5024930;28;20482;-56
2022/04/14 10:56:41;;;;;;;24.58;15.25;;;;;;;22.58;29.44;100727.09;5026271;28;20501;-58
2022/04/14 10:59:11;;;;;;;23.25;13.68;;;;;;;22.55;29.81;100720.13;5015095;28;20434;-58
2022/04/14 11:01:45;;;;;;;23.67;14.25;;;;;;;22.57;29.44;100720.03;5022718;28;20030;-58
2022/04/14 11:04:28;;;;;;;25.55;13.90;;;;;;;22.50;29.13;100721.38;5017695;28;20029;-58
2022/04/14 11:06:59;;;;;;;22.75;12.85;;;;;;;22.52;29.43;100722.16;5030882;28;20039;-59
2022/04/14 11:09:42;;;;;;;26.30;14.50;;;;;;;22.78;29.46;100721.28;5017998;28;20059;-58
2022/04/14 11:12:19;;;;;;;26.80;14.25;;;;;;;22.98;28.50;100724.44;5013108;28;20429;-59